sensor_id;sensor_type;location;lat;lon;timestamp;temperature;humidity
37844;DHT22;63793;57.632;18.292;2022-12-26T00:00:45;1.40;99.90
37844;DHT22;63793;57.632;18.292;2022-12-26T00:03:12;1.40;99.90
37844;DHT22;63793;57.632;18.292;2022-12-26T00:05:41;1.40;99.90
37844;DHT22;63793;57.632;18.292;2022-12-26T00:08:07;1.40;99.90
37844;DHT22;63793;57.632;18.292;2022-12-26T00:10:34;1.40;99.90
37844;DHT22;63793;57.632;18.292;2022-12-26T00:13:01;1.40;99.90
37844;DHT22;63793;57.632;18.292;2022-12-26T00:15:48;1.40;99.90
37844;DHT22;63793;57.632;18.292;2022-12-26T00:18:16;1.40;99.90
37844;DHT22;63793;57.632;18.292;2022-12-26T00:20:43;1.30;99.90
37844;DHT22;63793;57.632;18.292;2022-12-26T00:23:10;1.40;99.90
37844;DHT22;63793;57.632;18.292;2022-12-26T00:25:36;1.40;99.90
37844;DHT22;63793;57.632;18.292;2022-12-26T00:28:03;1.40;99.90
37844;DHT22;63793;57.632;18.292;2022-12-26T00:30:30;1.40;99.90
37844;DHT22;63793;57.632;18.292;2022-12-26T00:32:57;1.40;99.90
37844;DHT22;63793;57.632;18.292;2022-12-26T00:35:24;1.40;99.90
37844;DHT22;63793;57.632;18.292;2022-12-26T00:37:51;1.40;99.90
37844;DHT22;63793;57.632;18.292;2022-12-26T00:40:18;1.40;99.90
37844;DHT22;63793;57.632;18.292;2022-12-26T00:42:45;1.50;99.90
37844;DHT22;63793;57.632;18.292;2022-12-26T00:45:11;1.50;99.90
37844;DHT22;63793;57.632;18.292;2022-12-26T00:47:38;1.50;99.90
37844;DHT22;63793;57.632;18.292;2022-12-26T00:50:05;1.50;99.90
37844;DHT22;63793;57.632;18.292;2022-12-26T00:52:41;1.50;99.90
37844;DHT22;63793;57.632;18.292;2022-12-26T00:55:08;1.40;99.90
37844;DHT22;63793;57.632;18.292;2022-12-26T00:57:36;1.40;99.90
37844;DHT22;63793;57.632;18.292;2022-12-26T01:00:04;1.50;99.90
37844;DHT22;63793;57.632;18.292;2022-12-26T01:02:31;1.50;99.90
37844;DHT22;63793;57.632;18.292;2022-12-26T01:05:07;1.50;99.90
37844;DHT22;63793;57.632;18.292;2022-12-26T01:07:35;1.50;99.90
37844;DHT22;63793;57.632;18.292;2022-12-26T01:10:22;1.50;99.90
37844;DHT22;63793;57.632;18.292;2022-12-26T01:12:49;1.50;99.90
37844;DHT22;63793;57.632;18.292;2022-12-26T01:15:17;1.50;99.90
37844;DHT22;63793;57.632;18.292;2022-12-26T01:17:45;1.50;99.90
37844;DHT22;63793;57.632;18.292;2022-12-26T01:20:11;1.50;99.90
37844;DHT22;63793;57.632;18.292;2022-12-26T01:22:38;1.60;99.90
37844;DHT22;63793;57.632;18.292;2022-12-26T01:25:06;1.60;99.90
37844;DHT22;63793;57.632;18.292;2022-12-26T01:27:33;1.50;99.90
37844;DHT22;63793;57.632;18.292;2022-12-26T01:30:00;1.60;99.90
37844;DHT22;63793;57.632;18.292;2022-12-26T01:32:27;1.60;99.90
37844;DHT22;63793;57.632;18.292;2022-12-26T01:34:53;1.60;99.90
37844;DHT22;63793;57.632;18.292;2022-12-26T01:37:22;1.60;99.90
37844;DHT22;63793;57.632;18.292;2022-12-26T01:39:50;1.60;99.90
37844;DHT22;63793;57.632;18.292;2022-12-26T01:42:21;1.60;99.90
37844;DHT22;63793;57.632;18.292;2022-12-26T01:47:23;1.60;99.90
37844;DHT22;63793;57.632;18.292;2022-12-26T01:49:52;1.60;99.90
37844;DHT22;63793;57.632;18.292;2022-12-26T01:52:38;1.60;99.90
37844;DHT22;63793;57.632;18.292;2022-12-26T01:55:07;1.70;99.90
37844;DHT22;63793;57.632;18.292;2022-12-26T01:57:41;1.70;99.90
37844;DHT22;63793;57.632;18.292;2022-12-26T02:00:10;1.70;99.90
37844;DHT22;63793;57.632;18.292;2022-12-26T02:02:40;1.70;99.90
37844;DHT22;63793;57.632;18.292;2022-12-26T02:05:28;1.70;99.90
37844;DHT22;63793;57.632;18.292;2022-12-26T02:08:25;1.70;99.90
37844;DHT22;63793;57.632;18.292;2022-12-26T02:10:59;1.80;99.90
37844;DHT22;63793;57.632;18.292;2022-12-26T02:13:27;1.80;99.90
37844;DHT22;63793;57.632;18.292;2022-12-26T02:15:55;1.80;99.90
37844;DHT22;63793;57.632;18.292;2022-12-26T02:18:22;1.80;99.90
37844;DHT22;63793;57.632;18.292;2022-12-26T02:26:28;1.80;99.90
37844;DHT22;63793;57.632;18.292;2022-12-26T02:37:28;1.90;99.90
37844;DHT22;63793;57.632;18.292;2022-12-26T02:54:56;2.10;99.90
37844;DHT22;63793;57.632;18.292;2022-12-26T03:00:45;2.10;99.90
37844;DHT22;63793;57.632;18.292;2022-12-26T03:03:33;2.10;99.90
37844;DHT22;63793;57.632;18.292;2022-12-26T03:06:21;2.10;99.90
37844;DHT22;63793;57.632;18.292;2022-12-26T03:09:11;2.10;99.90
37844;DHT22;63793;57.632;18.292;2022-12-26T03:12:39;2.10;99.90
37844;DHT22;63793;57.632;18.292;2022-12-26T03:15:19;2.10;99.90
37844;DHT22;63793;57.632;18.292;2022-12-26T03:17:49;2.20;99.90
37844;DHT22;63793;57.632;18.292;2022-12-26T03:20:21;2.10;99.90
37844;DHT22;63793;57.632;18.292;2022-12-26T03:25:36;2.20;99.90
37844;DHT22;63793;57.632;18.292;2022-12-26T03:28:24;2.20;99.90
37844;DHT22;63793;57.632;18.292;2022-12-26T03:30:52;2.20;99.90
37844;DHT22;63793;57.632;18.292;2022-12-26T03:36:11;2.30;99.90
37844;DHT22;63793;57.632;18.292;2022-12-26T03:38:57;2.30;99.90
37844;DHT22;63793;57.632;18.292;2022-12-26T03:45:02;2.30;99.90
37844;DHT22;63793;57.632;18.292;2022-12-26T03:48:17;2.40;99.90
37844;DHT22;63793;57.632;18.292;2022-12-26T03:51:13;2.40;99.90
37844;DHT22;63793;57.632;18.292;2022-12-26T03:54:15;2.40;99.90
37844;DHT22;63793;57.632;18.292;2022-12-26T03:57:08;2.40;99.90
37844;DHT22;63793;57.632;18.292;2022-12-26T04:00:23;2.40;99.90
37844;DHT22;63793;57.632;18.292;2022-12-26T04:03:12;2.50;99.90
37844;DHT22;63793;57.632;18.292;2022-12-26T04:06:00;2.50;99.90
37844;DHT22;63793;57.632;18.292;2022-12-26T04:09:09;2.50;99.90
37844;DHT22;63793;57.632;18.292;2022-12-26T04:11:58;2.50;99.90
37844;DHT22;63793;57.632;18.292;2022-12-26T04:14:57;2.50;99.90
37844;DHT22;63793;57.632;18.292;2022-12-26T04:17:57;2.50;99.90
37844;DHT22;63793;57.632;18.292;2022-12-26T04:21:03;2.60;99.90
37844;DHT22;63793;57.632;18.292;2022-12-26T04:23:40;2.60;99.90
37844;DHT22;63793;57.632;18.292;2022-12-26T04:26:43;2.60;99.90
37844;DHT22;63793;57.632;18.292;2022-12-26T04:29:29;2.60;99.90
37844;DHT22;63793;57.632;18.292;2022-12-26T04:32:22;2.70;99.90
37844;DHT22;63793;57.632;18.292;2022-12-26T04:35:17;2.70;99.90
37844;DHT22;63793;57.632;18.292;2022-12-26T04:38:04;2.70;99.90
37844;DHT22;63793;57.632;18.292;2022-12-26T04:40:55;2.70;99.90
37844;DHT22;63793;57.632;18.292;2022-12-26T04:43:43;2.80;99.90
37844;DHT22;63793;57.632;18.292;2022-12-26T04:46:29;2.80;99.90
37844;DHT22;63793;57.632;18.292;2022-12-26T04:48:59;2.80;99.90
37844;DHT22;63793;57.632;18.292;2022-12-26T04:51:47;2.80;99.90
37844;DHT22;63793;57.632;18.292;2022-12-26T04:54:14;2.80;99.90
37844;DHT22;63793;57.632;18.292;2022-12-26T04:56:41;2.90;99.90
37844;DHT22;63793;57.632;18.292;2022-12-26T04:59:08;2.90;99.90
37844;DHT22;63793;57.632;18.292;2022-12-26T05:01:35;2.90;99.90
37844;DHT22;63793;57.632;18.292;2022-12-26T05:04:21;2.90;99.90
37844;DHT22;63793;57.632;18.292;2022-12-26T05:07:24;2.90;99.90
37844;DHT22;63793;57.632;18.292;2022-12-26T05:10:18;2.90;99.90
37844;DHT22;63793;57.632;18.292;2022-12-26T05:12:45;3.00;99.90
37844;DHT22;63793;57.632;18.292;2022-12-26T05:15:12;3.00;99.90
37844;DHT22;63793;57.632;18.292;2022-12-26T05:17:39;3.00;99.90
37844;DHT22;63793;57.632;18.292;2022-12-26T05:20:25;3.00;99.90
37844;DHT22;63793;57.632;18.292;2022-12-26T05:23:21;3.00;99.90
37844;DHT22;63793;57.632;18.292;2022-12-26T05:26:26;3.00;99.90
37844;DHT22;63793;57.632;18.292;2022-12-26T05:29:11;3.00;99.90
37844;DHT22;63793;57.632;18.292;2022-12-26T05:31:38;3.00;99.90
37844;DHT22;63793;57.632;18.292;2022-12-26T05:34:05;3.00;99.90
37844;DHT22;63793;57.632;18.292;2022-12-26T05:36:42;3.10;99.90
37844;DHT22;63793;57.632;18.292;2022-12-26T05:39:10;3.10;99.90
37844;DHT22;63793;57.632;18.292;2022-12-26T05:41:37;3.10;99.90
37844;DHT22;63793;57.632;18.292;2022-12-26T05:44:07;3.10;99.90
37844;DHT22;63793;57.632;18.292;2022-12-26T05:46:34;3.10;99.90
37844;DHT22;63793;57.632;18.292;2022-12-26T05:49:02;3.10;99.90
37844;DHT22;63793;57.632;18.292;2022-12-26T05:51:29;3.10;99.90
37844;DHT22;63793;57.632;18.292;2022-12-26T05:53:56;3.10;99.90
37844;DHT22;63793;57.632;18.292;2022-12-26T05:56:23;3.10;99.90
37844;DHT22;63793;57.632;18.292;2022-12-26T05:58:54;3.10;99.90
37844;DHT22;63793;57.632;18.292;2022-12-26T06:01:22;3.10;99.90
37844;DHT22;63793;57.632;18.292;2022-12-26T06:03:52;3.10;99.90
37844;DHT22;63793;57.632;18.292;2022-12-26T06:06:20;3.10;99.90
37844;DHT22;63793;57.632;18.292;2022-12-26T06:08:49;3.10;99.90
37844;DHT22;63793;57.632;18.292;2022-12-26T06:11:16;3.20;99.90
37844;DHT22;63793;57.632;18.292;2022-12-26T06:13:44;3.20;99.90
37844;DHT22;63793;57.632;18.292;2022-12-26T06:16:13;3.10;99.90
37844;DHT22;63793;57.632;18.292;2022-12-26T06:18:41;3.10;99.90
37844;DHT22;63793;57.632;18.292;2022-12-26T06:21:10;3.20;99.90
37844;DHT22;63793;57.632;18.292;2022-12-26T06:23:38;3.20;99.90
37844;DHT22;63793;57.632;18.292;2022-12-26T06:26:06;3.20;99.90
37844;DHT22;63793;57.632;18.292;2022-12-26T06:28:35;3.20;99.90
37844;DHT22;63793;57.632;18.292;2022-12-26T06:31:08;3.20;99.90
37844;DHT22;63793;57.632;18.292;2022-12-26T06:33:36;3.20;99.90
37844;DHT22;63793;57.632;18.292;2022-12-26T06:36:05;3.20;99.90
37844;DHT22;63793;57.632;18.292;2022-12-26T06:38:32;3.20;99.90
37844;DHT22;63793;57.632;18.292;2022-12-26T06:40:59;3.20;99.90
37844;DHT22;63793;57.632;18.292;2022-12-26T06:43:26;3.20;99.90
37844;DHT22;63793;57.632;18.292;2022-12-26T06:45:57;3.20;99.90
37844;DHT22;63793;57.632;18.292;2022-12-26T06:48:24;3.20;99.90
37844;DHT22;63793;57.632;18.292;2022-12-26T06:50:51;3.20;99.90
37844;DHT22;63793;57.632;18.292;2022-12-26T06:53:21;3.20;99.90
37844;DHT22;63793;57.632;18.292;2022-12-26T06:55:49;3.20;99.90
37844;DHT22;63793;57.632;18.292;2022-12-26T06:58:16;3.20;99.90
37844;DHT22;63793;57.632;18.292;2022-12-26T07:00:43;3.20;99.90
37844;DHT22;63793;57.632;18.292;2022-12-26T07:03:10;3.20;99.90
37844;DHT22;63793;57.632;18.292;2022-12-26T07:05:38;3.20;99.90
37844;DHT22;63793;57.632;18.292;2022-12-26T07:08:05;3.20;99.90
37844;DHT22;63793;57.632;18.292;2022-12-26T07:10:35;3.20;99.90
37844;DHT22;63793;57.632;18.292;2022-12-26T07:13:02;3.20;99.90
37844;DHT22;63793;57.632;18.292;2022-12-26T07:15:30;3.20;99.90
37844;DHT22;63793;57.632;18.292;2022-12-26T07:17:57;3.20;99.90
37844;DHT22;63793;57.632;18.292;2022-12-26T07:20:24;3.30;99.90
37844;DHT22;63793;57.632;18.292;2022-12-26T07:22:51;3.30;99.90
37844;DHT22;63793;57.632;18.292;2022-12-26T07:25:17;3.30;99.90
37844;DHT22;63793;57.632;18.292;2022-12-26T07:27:44;3.30;99.90
37844;DHT22;63793;57.632;18.292;2022-12-26T07:30:11;3.20;99.90
37844;DHT22;63793;57.632;18.292;2022-12-26T07:32:38;3.20;99.90
37844;DHT22;63793;57.632;18.292;2022-12-26T07:35:05;3.30;99.90
37844;DHT22;63793;57.632;18.292;2022-12-26T07:37:32;3.20;99.90
37844;DHT22;63793;57.632;18.292;2022-12-26T07:39:59;3.20;99.90
37844;DHT22;63793;57.632;18.292;2022-12-26T07:42:26;3.30;99.90
37844;DHT22;63793;57.632;18.292;2022-12-26T07:44:53;3.20;99.90
37844;DHT22;63793;57.632;18.292;2022-12-26T07:47:20;3.30;99.90
37844;DHT22;63793;57.632;18.292;2022-12-26T07:49:46;3.20;99.90
37844;DHT22;63793;57.632;18.292;2022-12-26T07:52:13;3.20;99.90
37844;DHT22;63793;57.632;18.292;2022-12-26T07:54:40;3.20;99.90
37844;DHT22;63793;57.632;18.292;2022-12-26T07:57:07;3.20;99.90
37844;DHT22;63793;57.632;18.292;2022-12-26T07:59:55;3.20;99.90
37844;DHT22;63793;57.632;18.292;2022-12-26T08:02:22;3.20;99.90
37844;DHT22;63793;57.632;18.292;2022-12-26T08:04:50;3.20;99.90
37844;DHT22;63793;57.632;18.292;2022-12-26T08:07:17;3.30;99.90
37844;DHT22;63793;57.632;18.292;2022-12-26T08:09:44;3.20;99.90
37844;DHT22;63793;57.632;18.292;2022-12-26T08:12:11;3.30;99.90
37844;DHT22;63793;57.632;18.292;2022-12-26T08:14:39;3.20;99.90
37844;DHT22;63793;57.632;18.292;2022-12-26T08:17:07;3.20;99.90
37844;DHT22;63793;57.632;18.292;2022-12-26T08:19:34;3.20;99.90
37844;DHT22;63793;57.632;18.292;2022-12-26T08:22:01;3.20;99.90
37844;DHT22;63793;57.632;18.292;2022-12-26T08:24:28;3.20;99.90
37844;DHT22;63793;57.632;18.292;2022-12-26T08:26:55;3.20;99.90
37844;DHT22;63793;57.632;18.292;2022-12-26T08:29:22;3.20;99.90
37844;DHT22;63793;57.632;18.292;2022-12-26T08:31:49;3.20;99.90
37844;DHT22;63793;57.632;18.292;2022-12-26T08:34:16;3.20;99.90
37844;DHT22;63793;57.632;18.292;2022-12-26T08:36:43;3.20;99.90
37844;DHT22;63793;57.632;18.292;2022-12-26T08:39:10;3.20;99.90
37844;DHT22;63793;57.632;18.292;2022-12-26T08:41:37;3.20;99.90
37844;DHT22;63793;57.632;18.292;2022-12-26T08:44:04;3.20;99.90
37844;DHT22;63793;57.632;18.292;2022-12-26T08:46:50;3.20;99.90
37844;DHT22;63793;57.632;18.292;2022-12-26T08:49:17;3.20;99.90
37844;DHT22;63793;57.632;18.292;2022-12-26T08:51:44;3.20;99.90
37844;DHT22;63793;57.632;18.292;2022-12-26T08:54:11;3.20;99.90
37844;DHT22;63793;57.632;18.292;2022-12-26T08:56:38;3.20;99.90
37844;DHT22;63793;57.632;18.292;2022-12-26T08:59:05;3.20;99.90
37844;DHT22;63793;57.632;18.292;2022-12-26T09:01:32;3.20;99.90
37844;DHT22;63793;57.632;18.292;2022-12-26T09:04:01;3.20;99.90
37844;DHT22;63793;57.632;18.292;2022-12-26T09:06:31;3.20;99.90
37844;DHT22;63793;57.632;18.292;2022-12-26T09:08:58;3.20;99.90
37844;DHT22;63793;57.632;18.292;2022-12-26T09:11:26;3.20;99.90
37844;DHT22;63793;57.632;18.292;2022-12-26T09:13:55;3.20;99.90
37844;DHT22;63793;57.632;18.292;2022-12-26T09:16:25;3.10;99.90
37844;DHT22;63793;57.632;18.292;2022-12-26T09:18:59;3.10;99.90
37844;DHT22;63793;57.632;18.292;2022-12-26T09:21:28;3.10;99.90
37844;DHT22;63793;57.632;18.292;2022-12-26T09:23:59;3.10;99.90
37844;DHT22;63793;57.632;18.292;2022-12-26T09:26:27;3.10;99.90
37844;DHT22;63793;57.632;18.292;2022-12-26T09:28:55;3.10;99.90
37844;DHT22;63793;57.632;18.292;2022-12-26T09:31:24;3.10;99.90
37844;DHT22;63793;57.632;18.292;2022-12-26T09:33:51;3.10;99.90
37844;DHT22;63793;57.632;18.292;2022-12-26T09:36:23;3.10;99.90
37844;DHT22;63793;57.632;18.292;2022-12-26T09:38:51;3.10;99.90
37844;DHT22;63793;57.632;18.292;2022-12-26T09:46:35;3.10;99.90
37844;DHT22;63793;57.632;18.292;2022-12-26T09:49:30;3.10;99.90
37844;DHT22;63793;57.632;18.292;2022-12-26T09:52:00;3.10;99.90
37844;DHT22;63793;57.632;18.292;2022-12-26T09:54:37;3.10;99.90
37844;DHT22;63793;57.632;18.292;2022-12-26T09:57:14;3.10;99.90
37844;DHT22;63793;57.632;18.292;2022-12-26T09:59:55;3.10;99.90
37844;DHT22;63793;57.632;18.292;2022-12-26T10:02:23;3.10;99.90
37844;DHT22;63793;57.632;18.292;2022-12-26T10:04:52;3.10;99.90
37844;DHT22;63793;57.632;18.292;2022-12-26T10:07:39;3.10;99.90
37844;DHT22;63793;57.632;18.292;2022-12-26T10:15:51;3.10;99.90
37844;DHT22;63793;57.632;18.292;2022-12-26T10:24:14;3.10;99.90
37844;DHT22;63793;57.632;18.292;2022-12-26T10:26:55;3.10;99.90
37844;DHT22;63793;57.632;18.292;2022-12-26T10:29:36;3.10;99.90
37844;DHT22;63793;57.632;18.292;2022-12-26T10:32:15;3.10;99.90
37844;DHT22;63793;57.632;18.292;2022-12-26T10:34:53;3.10;99.90
37844;DHT22;63793;57.632;18.292;2022-12-26T10:42:40;3.10;99.90
37844;DHT22;63793;57.632;18.292;2022-12-26T10:47:49;3.00;99.90
37844;DHT22;63793;57.632;18.292;2022-12-26T10:50:25;3.00;99.90
37844;DHT22;63793;57.632;18.292;2022-12-26T10:52:54;3.00;99.90
37844;DHT22;63793;57.632;18.292;2022-12-26T10:55:29;3.10;99.90
37844;DHT22;63793;57.632;18.292;2022-12-26T10:58:10;3.10;99.90
37844;DHT22;63793;57.632;18.292;2022-12-26T11:00:40;3.10;99.90
37844;DHT22;63793;57.632;18.292;2022-12-26T11:03:12;3.10;99.90
37844;DHT22;63793;57.632;18.292;2022-12-26T11:05:51;3.00;99.90
37844;DHT22;63793;57.632;18.292;2022-12-26T11:08:46;3.10;99.90
37844;DHT22;63793;57.632;18.292;2022-12-26T11:11:30;3.00;99.90
37844;DHT22;63793;57.632;18.292;2022-12-26T11:14:34;3.10;99.90
37844;DHT22;63793;57.632;18.292;2022-12-26T11:17:13;3.00;99.90
37844;DHT22;63793;57.632;18.292;2022-12-26T11:22:40;3.00;99.90
37844;DHT22;63793;57.632;18.292;2022-12-26T11:27:54;3.00;99.90
37844;DHT22;63793;57.632;18.292;2022-12-26T11:36:07;3.10;99.90
37844;DHT22;63793;57.632;18.292;2022-12-26T11:38:53;3.00;99.90
37844;DHT22;63793;57.632;18.292;2022-12-26T11:44:03;3.00;99.90
37844;DHT22;63793;57.632;18.292;2022-12-26T11:49:37;3.00;99.90
37844;DHT22;63793;57.632;18.292;2022-12-26T11:52:34;3.00;99.90
37844;DHT22;63793;57.632;18.292;2022-12-26T11:58:05;3.00;99.90
37844;DHT22;63793;57.632;18.292;2022-12-26T12:00:38;3.00;99.90
37844;DHT22;63793;57.632;18.292;2022-12-26T12:14:27;3.00;99.90
37844;DHT22;63793;57.632;18.292;2022-12-26T12:17:35;3.00;99.90
37844;DHT22;63793;57.632;18.292;2022-12-26T12:26:08;3.00;99.90
37844;DHT22;63793;57.632;18.292;2022-12-26T12:31:53;3.00;99.90
37844;DHT22;63793;57.632;18.292;2022-12-26T12:42:51;3.00;99.90
37844;DHT22;63793;57.632;18.292;2022-12-26T12:45:46;3.00;99.90
37844;DHT22;63793;57.632;18.292;2022-12-26T12:51:23;3.00;99.90
37844;DHT22;63793;57.632;18.292;2022-12-26T13:05:02;3.00;99.90
37844;DHT22;63793;57.632;18.292;2022-12-26T13:07:35;3.00;99.90
37844;DHT22;63793;57.632;18.292;2022-12-26T13:10:56;3.00;99.90
37844;DHT22;63793;57.632;18.292;2022-12-26T13:13:37;3.00;99.90
37844;DHT22;63793;57.632;18.292;2022-12-26T13:16:20;3.00;99.90
37844;DHT22;63793;57.632;18.292;2022-12-26T13:18:51;3.00;99.90
37844;DHT22;63793;57.632;18.292;2022-12-26T13:21:20;3.00;99.90
37844;DHT22;63793;57.632;18.292;2022-12-26T13:24:18;3.00;99.90
37844;DHT22;63793;57.632;18.292;2022-12-26T13:26:56;2.90;99.90
37844;DHT22;63793;57.632;18.292;2022-12-26T13:31:58;2.90;99.90
37844;DHT22;63793;57.632;18.292;2022-12-26T13:34:26;2.90;99.90
37844;DHT22;63793;57.632;18.292;2022-12-26T13:36:54;2.80;99.90
37844;DHT22;63793;57.632;18.292;2022-12-26T13:44:52;2.80;99.90
37844;DHT22;63793;57.632;18.292;2022-12-26T13:47:34;2.80;99.90
37844;DHT22;63793;57.632;18.292;2022-12-26T14:04:36;2.60;99.90
37844;DHT22;63793;57.632;18.292;2022-12-26T14:07:32;2.60;99.90
37844;DHT22;63793;57.632;18.292;2022-12-26T14:10:03;2.50;99.90
37844;DHT22;63793;57.632;18.292;2022-12-26T14:15:28;2.60;99.90
37844;DHT22;63793;57.632;18.292;2022-12-26T14:18:15;2.50;99.90
37844;DHT22;63793;57.632;18.292;2022-12-26T14:21:11;2.50;99.90
37844;DHT22;63793;57.632;18.292;2022-12-26T14:40:22;2.30;99.90
37844;DHT22;63793;57.632;18.292;2022-12-26T14:45:51;2.10;99.90
37844;DHT22;63793;57.632;18.292;2022-12-26T14:53:45;2.00;99.90
37844;DHT22;63793;57.632;18.292;2022-12-26T14:56:35;2.00;99.90
37844;DHT22;63793;57.632;18.292;2022-12-26T14:59:26;1.90;99.90
37844;DHT22;63793;57.632;18.292;2022-12-26T15:02:26;1.90;99.90
37844;DHT22;63793;57.632;18.292;2022-12-26T15:05:23;1.90;99.90
37844;DHT22;63793;57.632;18.292;2022-12-26T15:08:01;2.00;99.90
37844;DHT22;63793;57.632;18.292;2022-12-26T15:10:58;2.00;99.90
37844;DHT22;63793;57.632;18.292;2022-12-26T15:22:00;2.00;99.90
37844;DHT22;63793;57.632;18.292;2022-12-26T15:33:05;2.10;99.90
37844;DHT22;63793;57.632;18.292;2022-12-26T15:35:35;2.10;99.90
37844;DHT22;63793;57.632;18.292;2022-12-26T15:40:44;2.10;99.90
37844;DHT22;63793;57.632;18.292;2022-12-26T15:43:41;2.10;99.90
37844;DHT22;63793;57.632;18.292;2022-12-26T15:46:30;2.10;99.90
37844;DHT22;63793;57.632;18.292;2022-12-26T15:55:02;2.10;99.90
37844;DHT22;63793;57.632;18.292;2022-12-26T15:57:46;2.10;99.90
37844;DHT22;63793;57.632;18.292;2022-12-26T16:00:25;2.10;99.90
37844;DHT22;63793;57.632;18.292;2022-12-26T16:03:08;2.10;99.90
37844;DHT22;63793;57.632;18.292;2022-12-26T16:08:53;2.10;99.90
37844;DHT22;63793;57.632;18.292;2022-12-26T16:11:29;2.10;99.90
37844;DHT22;63793;57.632;18.292;2022-12-26T16:13:59;2.00;99.90
37844;DHT22;63793;57.632;18.292;2022-12-26T16:16:30;2.00;99.90
37844;DHT22;63793;57.632;18.292;2022-12-26T16:19:14;2.00;99.90
37844;DHT22;63793;57.632;18.292;2022-12-26T16:21:44;2.00;99.90
37844;DHT22;63793;57.632;18.292;2022-12-26T16:24:38;2.00;99.90
37844;DHT22;63793;57.632;18.292;2022-12-26T16:27:07;2.00;99.90
37844;DHT22;63793;57.632;18.292;2022-12-26T16:29:40;1.90;99.90
37844;DHT22;63793;57.632;18.292;2022-12-26T16:32:18;1.90;99.90
37844;DHT22;63793;57.632;18.292;2022-12-26T16:34:46;1.90;99.90
37844;DHT22;63793;57.632;18.292;2022-12-26T16:37:18;1.90;99.90
37844;DHT22;63793;57.632;18.292;2022-12-26T16:40:11;1.90;99.90
37844;DHT22;63793;57.632;18.292;2022-12-26T16:43:04;1.90;99.90
37844;DHT22;63793;57.632;18.292;2022-12-26T16:45:32;1.80;99.90
37844;DHT22;63793;57.632;18.292;2022-12-26T16:48:00;1.80;99.90
37844;DHT22;63793;57.632;18.292;2022-12-26T16:50:30;1.70;99.90
37844;DHT22;63793;57.632;18.292;2022-12-26T16:53:08;1.70;99.90
37844;DHT22;63793;57.632;18.292;2022-12-26T16:55:39;1.70;99.90
37844;DHT22;63793;57.632;18.292;2022-12-26T16:58:14;1.60;99.90
37844;DHT22;63793;57.632;18.292;2022-12-26T17:01:04;1.60;99.90
37844;DHT22;63793;57.632;18.292;2022-12-26T17:03:55;1.50;99.90
37844;DHT22;63793;57.632;18.292;2022-12-26T17:06:32;1.50;99.90
37844;DHT22;63793;57.632;18.292;2022-12-26T17:09:12;1.50;99.90
37844;DHT22;63793;57.632;18.292;2022-12-26T17:11:55;1.40;99.90
37844;DHT22;63793;57.632;18.292;2022-12-26T17:14:35;1.40;99.90
37844;DHT22;63793;57.632;18.292;2022-12-26T17:17:10;1.40;99.90
37844;DHT22;63793;57.632;18.292;2022-12-26T17:19:54;1.40;99.90
37844;DHT22;63793;57.632;18.292;2022-12-26T17:22:33;1.40;99.90
37844;DHT22;63793;57.632;18.292;2022-12-26T17:25:24;1.40;99.90
37844;DHT22;63793;57.632;18.292;2022-12-26T17:30:36;1.30;99.90
37844;DHT22;63793;57.632;18.292;2022-12-26T17:33:13;1.30;99.90
37844;DHT22;63793;57.632;18.292;2022-12-26T17:35:47;1.30;99.90
37844;DHT22;63793;57.632;18.292;2022-12-26T17:38:35;1.30;99.90
37844;DHT22;63793;57.632;18.292;2022-12-26T17:41:03;1.30;99.90
37844;DHT22;63793;57.632;18.292;2022-12-26T17:43:33;1.30;99.90
37844;DHT22;63793;57.632;18.292;2022-12-26T17:46:01;1.30;99.90
37844;DHT22;63793;57.632;18.292;2022-12-26T17:48:29;1.30;99.90
37844;DHT22;63793;57.632;18.292;2022-12-26T17:51:02;1.30;99.90
37844;DHT22;63793;57.632;18.292;2022-12-26T17:56:04;1.30;99.90
37844;DHT22;63793;57.632;18.292;2022-12-26T17:58:32;1.30;99.90
37844;DHT22;63793;57.632;18.292;2022-12-26T18:01:00;1.30;99.90
37844;DHT22;63793;57.632;18.292;2022-12-26T18:03:27;1.30;99.90
37844;DHT22;63793;57.632;18.292;2022-12-26T18:05:55;1.30;99.90
37844;DHT22;63793;57.632;18.292;2022-12-26T18:08:28;1.20;99.90
37844;DHT22;63793;57.632;18.292;2022-12-26T18:10:56;1.20;99.90
37844;DHT22;63793;57.632;18.292;2022-12-26T18:13:23;1.30;99.90
37844;DHT22;63793;57.632;18.292;2022-12-26T18:15:51;1.20;99.90
37844;DHT22;63793;57.632;18.292;2022-12-26T18:18:26;1.20;99.90
37844;DHT22;63793;57.632;18.292;2022-12-26T18:20:54;1.20;99.90
37844;DHT22;63793;57.632;18.292;2022-12-26T18:23:21;1.20;99.90
37844;DHT22;63793;57.632;18.292;2022-12-26T18:25:48;1.20;99.90
37844;DHT22;63793;57.632;18.292;2022-12-26T18:28:20;1.20;99.90
37844;DHT22;63793;57.632;18.292;2022-12-26T18:30:47;1.20;99.90
37844;DHT22;63793;57.632;18.292;2022-12-26T18:33:14;1.20;99.90
37844;DHT22;63793;57.632;18.292;2022-12-26T18:35:42;1.20;99.90
37844;DHT22;63793;57.632;18.292;2022-12-26T18:38:17;1.20;99.90
37844;DHT22;63793;57.632;18.292;2022-12-26T18:40:46;1.20;99.90
37844;DHT22;63793;57.632;18.292;2022-12-26T18:43:14;1.20;99.90
37844;DHT22;63793;57.632;18.292;2022-12-26T18:45:41;1.20;99.90
37844;DHT22;63793;57.632;18.292;2022-12-26T18:48:12;1.20;99.90
37844;DHT22;63793;57.632;18.292;2022-12-26T18:50:39;1.20;99.90
37844;DHT22;63793;57.632;18.292;2022-12-26T18:53:06;1.20;99.90
37844;DHT22;63793;57.632;18.292;2022-12-26T18:55:33;1.20;99.90
37844;DHT22;63793;57.632;18.292;2022-12-26T18:58:00;1.20;99.90
37844;DHT22;63793;57.632;18.292;2022-12-26T19:00:27;1.10;99.90
37844;DHT22;63793;57.632;18.292;2022-12-26T19:02:54;1.10;99.90
37844;DHT22;63793;57.632;18.292;2022-12-26T19:07:49;1.10;99.90
37844;DHT22;63793;57.632;18.292;2022-12-26T19:10:17;1.10;99.90
37844;DHT22;63793;57.632;18.292;2022-12-26T19:12:45;1.00;99.90
37844;DHT22;63793;57.632;18.292;2022-12-26T19:15:12;1.00;99.90
37844;DHT22;63793;57.632;18.292;2022-12-26T19:17:40;1.00;99.90
37844;DHT22;63793;57.632;18.292;2022-12-26T19:20:24;1.00;99.90
37844;DHT22;63793;57.632;18.292;2022-12-26T19:22:52;1.00;99.90
37844;DHT22;63793;57.632;18.292;2022-12-26T19:25:21;1.00;99.90
37844;DHT22;63793;57.632;18.292;2022-12-26T19:27:49;1.00;99.90
37844;DHT22;63793;57.632;18.292;2022-12-26T19:30:17;1.00;99.90
37844;DHT22;63793;57.632;18.292;2022-12-26T19:32:44;1.00;99.90
37844;DHT22;63793;57.632;18.292;2022-12-26T19:35:12;1.00;99.90
37844;DHT22;63793;57.632;18.292;2022-12-26T19:37:39;1.10;99.90
37844;DHT22;63793;57.632;18.292;2022-12-26T19:40:08;1.00;99.90
37844;DHT22;63793;57.632;18.292;2022-12-26T19:42:36;1.00;99.90
37844;DHT22;63793;57.632;18.292;2022-12-26T19:45:05;1.10;99.90
37844;DHT22;63793;57.632;18.292;2022-12-26T19:47:33;1.10;99.90
37844;DHT22;63793;57.632;18.292;2022-12-26T19:50:00;1.10;99.90
37844;DHT22;63793;57.632;18.292;2022-12-26T19:52:28;1.10;99.90